Time;durP1;ratioP1;P1;durP2;ratioP2;P2;SDS_P1;SDS_P2;PMS_P1;PMS_P2;Temp;Humidity;BMP_temperature;BMP_pressure;BME280_temperature;BME280_humidity;BME280_pressure;Samples;Min_cycle;Max_cycle;Signal;HPM_P1;HPM_P2
2022/03/13 00:00:42;;;;;;;8.73;6.33;;;;;;;;;;5072472;28;20492;-50
2022/03/13 00:03:10;;;;;;;6.90;5.70;;;;;;;;;;5072623;28;20446;-50
2022/03/13 00:05:36;;;;;;;7.80;6.00;;;;;;;;;;5072681;28;20841;-50
2022/03/13 00:08:04;;;;;;;6.97;5.83;;;;;;;;;;5072558;28;20434;-50
2022/03/13 00:10:30;;;;;;;6.23;5.10;;;;;;;;;;5072603;28;20438;-50
2022/03/13 00:12:57;;;;;;;7.13;5.40;;;;;;;;;;5072644;28;20567;-49
2022/03/13 00:15:26;;;;;;;6.23;5.53;;;;;;;;;;5072709;28;20465;-50
2022/03/13 00:17:53;;;;;;;7.57;5.73;;;;;;;;;;5072472;28;20438;-50
2022/03/13 00:20:22;;;;;;;7.67;5.47;;;;;;;;;;5072516;28;20437;-49
2022/03/13 00:22:48;;;;;;;6.10;5.30;;;;;;;;;;5070354;28;20959;-51
2022/03/13 00:25:14;;;;;;;6.07;5.37;;;;;;;;;;5072590;28;20530;-53
2022/03/13 00:27:40;;;;;;;7.37;5.40;;;;;;;;;;5072392;28;20446;-52
2022/03/13 00:30:07;;;;;;;7.07;5.47;;;;;;;;;;5072503;28;20441;-52
2022/03/13 00:32:33;;;;;;;7.43;5.50;;;;;;;;;;5072315;28;20224;-52
2022/03/13 00:34:59;;;;;;;8.17;5.90;;;;;;;;;;5072559;28;20518;-51
2022/03/13 00:37:27;;;;;;;6.97;5.87;;;;;;;;;;5072329;28;20869;-51
2022/03/13 00:39:54;;;;;;;6.27;5.13;;;;;;;;;;5072298;28;20299;-52
2022/03/13 00:42:21;;;;;;;7.90;5.63;;;;;;;;;;5072354;28;20503;-52
2022/03/13 00:44:49;;;;;;;7.27;5.47;;;;;;;;;;5072223;28;20433;-54
2022/03/13 00:47:15;;;;;;;8.53;5.50;;;;;;;;;;5072165;28;21023;-52
2022/03/13 00:49:41;;;;;;;6.57;5.37;;;;;;;;;;5072206;28;20430;-51
2022/03/13 00:52:07;;;;;;;7.43;5.80;;;;;;;;;;5072063;28;21069;-51
2022/03/13 00:54:34;;;;;;;7.20;5.67;;;;;;;;;;5072069;28;20210;-51
2022/03/13 00:57:00;;;;;;;7.53;5.20;;;;;;;;;;5069918;28;20948;-52
2022/03/13 00:59:26;;;;;;;7.63;5.53;;;;;;;;;;5071979;28;20460;-52
2022/03/13 01:01:52;;;;;;;9.93;5.43;;;;;;;;;;5071622;28;20442;-51
2022/03/13 01:04:18;;;;;;;6.77;5.27;;;;;;;;;;5072004;28;20499;-51
2022/03/13 01:06:46;;;;;;;7.53;5.77;;;;;;;;;;5071807;28;20195;-51
2022/03/13 01:09:12;;;;;;;7.57;5.80;;;;;;;;;;5072019;28;20513;-51
2022/03/13 01:11:39;;;;;;;8.87;6.33;;;;;;;;;;5071487;28;20872;-50
2022/03/13 01:14:06;;;;;;;6.17;5.37;;;;;;;;;;5071826;28;20947;-51
2022/03/13 01:16:34;;;;;;;8.73;5.97;;;;;;;;;;5071761;28;20483;-51
2022/03/13 01:19:00;;;;;;;7.47;5.70;;;;;;;;;;5072037;28;20839;-51
2022/03/13 01:21:26;;;;;;;10.97;5.70;;;;;;;;;;5071817;28;20448;-51
2022/03/13 01:24:03;;;;;;;9.27;6.00;;;;;;;;;;5071406;28;21107;-50
2022/03/13 01:26:41;;;;;;;7.73;5.67;;;;;;;;;;5071697;28;20437;-50
2022/03/13 01:29:08;;;;;;;7.03;5.83;;;;;;;;;;5071603;28;20935;-51
2022/03/13 01:31:36;;;;;;;9.67;5.60;;;;;;;;;;5071487;28;20442;-52
2022/03/13 01:34:03;;;;;;;7.33;5.70;;;;;;;;;;5071735;28;20841;-52
2022/03/13 01:36:29;;;;;;;7.77;5.60;;;;;;;;;;5071668;28;20456;-51
2022/03/13 01:38:56;;;;;;;7.87;6.43;;;;;;;;;;5071487;28;20521;-51
2022/03/13 01:41:22;;;;;;;12.33;6.40;;;;;;;;;;5071556;28;20438;-51
2022/03/13 01:43:49;;;;;;;8.00;6.17;;;;;;;;;;5071452;28;20797;-51
2022/03/13 01:46:15;;;;;;;9.87;6.10;;;;;;;;;;5071817;28;20980;-51
2022/03/13 01:48:53;;;;;;;6.83;5.30;;;;;;;;;;5071682;28;20461;-51
2022/03/13 01:51:19;;;;;;;7.73;5.90;;;;;;;;;;5071363;28;20958;-52
2022/03/13 01:53:45;;;;;;;7.33;5.90;;;;;;;;;;5071286;28;20481;-52
2022/03/13 01:56:11;;;;;;;7.07;5.57;;;;;;;;;;5071546;28;20994;-51
2022/03/13 01:58:37;;;;;;;8.27;7.10;;;;;;;;;;5071330;28;20243;-52
2022/03/13 02:01:04;;;;;;;12.83;6.13;;;;;;;;;;5071484;28;20203;-52
2022/03/13 02:03:30;;;;;;;8.50;6.07;;;;;;;;;;5071438;28;20441;-51
2022/03/13 02:05:57;;;;;;;6.77;5.70;;;;;;;;;;5071358;28;20508;-51
2022/03/13 02:08:24;;;;;;;8.93;6.00;;;;;;;;;;5072290;28;20835;-52
2022/03/13 02:10:50;;;;;;;8.73;5.23;;;;;;;;;;5074859;28;20430;-51
2022/03/13 02:13:17;;;;;;;7.63;6.03;;;;;;;;;;5075055;28;20501;-51
2022/03/13 02:15:44;;;;;;;8.67;5.70;;;;;;;;;;5074785;28;20530;-51
2022/03/13 02:18:11;;;;;;;7.53;6.03;;;;;;;;;;5074913;28;20430;-51
2022/03/13 02:20:39;;;;;;;8.70;5.70;;;;;;;;;;5074704;28;20499;-52
2022/03/13 02:23:14;;;;;;;9.17;6.03;;;;;;;;;;5074395;28;20498;-51
2022/03/13 02:25:40;;;;;;;6.70;6.03;;;;;;;;;;5074750;28;20460;-51
2022/03/13 02:28:06;;;;;;;7.90;6.47;;;;;;;;;;5074727;28;20924;-51
2022/03/13 02:30:34;;;;;;;7.73;5.93;;;;;;;;;;5074590;28;20195;-52
2022/03/13 02:33:00;;;;;;;6.83;6.07;;;;;;;;;;5074667;28;20245;-51
2022/03/13 02:35:28;;;;;;;9.57;6.10;;;;;;;;;;5074519;28;20440;-51
2022/03/13 02:37:54;;;;;;;10.43;6.23;;;;;;;;;;5074293;28;20436;-51
2022/03/13 02:40:23;;;;;;;7.53;6.17;;;;;;;;;;5074448;28;20438;-52
2022/03/13 02:42:49;;;;;;;7.90;6.07;;;;;;;;;;5074229;28;20203;-52
2022/03/13 02:45:26;;;;;;;9.23;6.27;;;;;;;;;;5074495;28;20433;-52
2022/03/13 02:47:52;;;;;;;8.37;6.37;;;;;;;;;;5074211;28;20463;-52
2022/03/13 02:50:18;;;;;;;8.37;6.00;;;;;;;;;;5074270;28;20434;-51
2022/03/13 02:52:44;;;;;;;7.97;6.50;;;;;;;;;;5074069;28;20238;-52
2022/03/13 02:55:10;;;;;;;7.00;6.10;;;;;;;;;;5074300;28;20441;-51
2022/03/13 02:57:39;;;;;;;7.30;5.87;;;;;;;;;;5074031;28;20241;-52
2022/03/13 03:00:06;;;;;;;7.27;5.90;;;;;;;;;;5074286;28;20207;-51
2022/03/13 03:02:32;;;;;;;10.23;6.47;;;;;;;;;;5074004;28;20449;-52
2022/03/13 03:04:58;;;;;;;7.07;6.07;;;;;;;;;;5073976;28;20508;-52
2022/03/13 03:07:23;;;;;;;7.57;6.23;;;;;;;;;;5073864;28;20529;-52
2022/03/13 03:09:50;;;;;;;9.37;5.90;;;;;;;;;;5073871;28;20195;-52
2022/03/13 03:12:16;;;;;;;7.23;6.17;;;;;;;;;;5073916;28;20223;-51
2022/03/13 03:14:43;;;;;;;11.03;6.30;;;;;;;;;;5073767;28;20495;-51
2022/03/13 03:17:09;;;;;;;8.00;6.23;;;;;;;;;;5073810;28;20453;-52
2022/03/13 03:19:35;;;;;;;8.07;6.47;;;;;;;;;;5072694;28;20825;-51
2022/03/13 03:22:01;;;;;;;7.83;6.60;;;;;;;;;;5073567;28;20923;-52
2022/03/13 03:24:27;;;;;;;8.03;5.93;;;;;;;;;;5073432;28;20478;-51
2022/03/13 03:26:54;;;;;;;7.03;6.10;;;;;;;;;;5073288;28;20995;-51
2022/03/13 03:29:20;;;;;;;8.33;6.57;;;;;;;;;;5073298;28;20195;-52
2022/03/13 03:31:49;;;;;;;10.00;6.43;;;;;;;;;;5073275;28;20434;-52
2022/03/13 03:34:16;;;;;;;8.67;5.90;;;;;;;;;;5073569;28;20511;-51
2022/03/13 03:36:43;;;;;;;10.50;6.43;;;;;;;;;;5073272;28;20454;-51
2022/03/13 03:39:10;;;;;;;11.73;6.00;;;;;;;;;;5073375;28;20434;-51
2022/03/13 03:41:36;;;;;;;9.33;6.90;;;;;;;;;;5073167;28;20476;-51
2022/03/13 03:44:02;;;;;;;9.40;7.23;;;;;;;;;;5073299;28;20433;-51
2022/03/13 03:46:28;;;;;;;12.00;6.00;;;;;;;;;;5073192;28;20442;-51
2022/03/13 03:48:55;;;;;;;7.83;6.37;;;;;;;;;;5073038;28;20621;-51
2022/03/13 03:51:21;;;;;;;8.70;6.20;;;;;;;;;;5072996;28;20241;-51
2022/03/13 03:53:47;;;;;;;11.80;6.90;;;;;;;;;;5072859;28;20485;-51
2022/03/13 03:56:13;;;;;;;8.80;6.63;;;;;;;;;;5073107;28;20278;-51
2022/03/13 03:58:39;;;;;;;9.60;6.57;;;;;;;;;;5072852;28;20183;-51
2022/03/13 04:01:05;;;;;;;9.20;6.50;;;;;;;;;;5072815;28;20230;-51
2022/03/13 04:03:31;;;;;;;9.80;6.10;;;;;;;;;;5072786;28;20188;-51
2022/03/13 04:05:59;;;;;;;8.53;6.67;;;;;;;;;;5072753;28;20279;-50
2022/03/13 04:08:25;;;;;;;9.43;6.27;;;;;;;;;;5072749;28;20495;-51
2022/03/13 04:10:51;;;;;;;8.23;6.30;;;;;;;;;;5072548;28;20432;-51
2022/03/13 04:13:18;;;;;;;8.87;6.70;;;;;;;;;;5072604;28;20484;-51
2022/03/13 04:15:44;;;;;;;8.20;6.13;;;;;;;;;;5072617;28;20479;-51
2022/03/13 04:18:10;;;;;;;8.77;6.17;;;;;;;;;;5072560;28;20774;-51
2022/03/13 04:20:36;;;;;;;8.90;6.47;;;;;;;;;;5072222;28;20461;-51
2022/03/13 04:23:03;;;;;;;9.07;6.07;;;;;;;;;;5072124;28;21048;-52
2022/03/13 04:25:30;;;;;;;9.17;6.57;;;;;;;;;;5072591;28;20429;-52
2022/03/13 04:27:58;;;;;;;6.93;5.93;;;;;;;;;;5072567;28;20466;-51
2022/03/13 04:30:28;;;;;;;9.23;6.70;;;;;;;;;;5072283;28;20491;-52
2022/03/13 04:32:56;;;;;;;7.83;6.20;;;;;;;;;;5072005;28;21007;-52
2022/03/13 04:35:22;;;;;;;8.00;6.33;;;;;;;;;;5071921;28;20849;-52
2022/03/13 04:37:48;;;;;;;8.30;6.53;;;;;;;;;;5072084;28;20447;-52
2022/03/13 04:40:16;;;;;;;10.30;7.33;;;;;;;;;;5072327;28;20513;-51
2022/03/13 04:42:42;;;;;;;9.40;6.53;;;;;;;;;;5072090;28;20203;-52
2022/03/13 04:45:09;;;;;;;9.70;7.00;;;;;;;;;;5072184;28;20458;-51
2022/03/13 04:47:35;;;;;;;12.57;6.83;;;;;;;;;;5071940;28;20446;-52
2022/03/13 04:50:01;;;;;;;9.33;6.60;;;;;;;;;;5072072;28;20457;-52
2022/03/13 04:52:27;;;;;;;9.57;6.80;;;;;;;;;;5071973;28;20227;-52
2022/03/13 04:54:53;;;;;;;12.03;7.23;;;;;;;;;;5071843;28;20449;-52
2022/03/13 04:57:21;;;;;;;8.97;6.17;;;;;;;;;;5071970;28;20437;-52
2022/03/13 04:59:47;;;;;;;8.10;6.67;;;;;;;;;;5071894;28;20460;-52
2022/03/13 05:02:13;;;;;;;8.70;6.67;;;;;;;;;;5072026;28;20939;-52
2022/03/13 05:04:41;;;;;;;9.20;7.10;;;;;;;;;;5071900;28;20199;-52
2022/03/13 05:07:07;;;;;;;7.87;6.27;;;;;;;;;;5071802;28;20689;-51
2022/03/13 05:09:33;;;;;;;9.03;6.50;;;;;;;;;;5071791;28;20923;-52
2022/03/13 05:12:10;;;;;;;9.73;6.83;;;;;;;;;;5071900;28;20460;-52
2022/03/13 05:14:37;;;;;;;8.97;5.97;;;;;;;;;;5071790;28;20203;-51
2022/03/13 05:17:03;;;;;;;8.10;6.73;;;;;;;;;;5071845;28;20445;-52
2022/03/13 05:19:29;;;;;;;10.23;6.90;;;;;;;;;;5071926;28;20434;-52
2022/03/13 05:21:55;;;;;;;10.20;6.50;;;;;;;;;;5071609;28;20936;-52
2022/03/13 05:24:21;;;;;;;7.13;6.33;;;;;;;;;;5071490;28;20243;-52
2022/03/13 05:26:48;;;;;;;8.30;6.33;;;;;;;;;;5071682;28;20446;-52
2022/03/13 05:29:14;;;;;;;7.90;6.17;;;;;;;;;;5071751;28;20430;-52
2022/03/13 05:31:41;;;;;;;8.83;6.63;;;;;;;;;;5071531;28;20989;-51
2022/03/13 05:34:08;;;;;;;10.37;6.73;;;;;;;;;;5071557;28;20822;-52
2022/03/13 05:36:34;;;;;;;9.97;6.50;;;;;;;;;;5071363;28;20441;-52
2022/03/13 05:39:00;;;;;;;10.20;7.10;;;;;;;;;;5071625;28;20433;-51
2022/03/13 05:41:26;;;;;;;10.60;6.87;;;;;;;;;;5071522;28;20662;-52
2022/03/13 05:43:52;;;;;;;9.40;6.80;;;;;;;;;;5073204;28;20499;-52
2022/03/13 05:46:18;;;;;;;9.07;7.30;;;;;;;;;;5075399;28;21053;-51
2022/03/13 05:48:46;;;;;;;12.33;6.97;;;;;;;;;;5075646;28;20453;-51
2022/03/13 05:51:12;;;;;;;10.03;7.07;;;;;;;;;;5075439;28;20433;-52
2022/03/13 05:53:38;;;;;;;8.90;6.83;;;;;;;;;;5075148;28;20952;-52
2022/03/13 05:56:04;;;;;;;11.03;7.43;;;;;;;;;;5075274;28;20203;-52
2022/03/13 05:58:30;;;;;;;9.40;6.77;;;;;;;;;;5075369;28;20215;-52
2022/03/13 06:01:04;;;;;;;9.63;7.10;;;;;;;;;;5075071;28;20418;-52
2022/03/13 06:03:30;;;;;;;10.00;7.20;;;;;;;;;;5075201;28;20507;-51
2022/03/13 06:05:57;;;;;;;10.43;7.13;;;;;;;;;;5074927;28;20438;-52
2022/03/13 06:08:23;;;;;;;8.50;6.37;;;;;;;;;;5075024;28;20442;-52
2022/03/13 06:10:51;;;;;;;9.67;7.03;;;;;;;;;;5074744;28;20473;-52
2022/03/13 06:13:19;;;;;;;10.47;7.10;;;;;;;;;;5074863;28;20478;-52
2022/03/13 06:15:45;;;;;;;12.40;6.77;;;;;;;;;;5074822;28;20770;-52
2022/03/13 06:18:12;;;;;;;9.47;7.30;;;;;;;;;;5074799;28;21195;-52
2022/03/13 06:20:38;;;;;;;9.77;6.50;;;;;;;;;;5074613;28;20448;-52
2022/03/13 06:23:05;;;;;;;11.63;6.67;;;;;;;;;;5074445;28;20481;-52
2022/03/13 06:25:31;;;;;;;8.33;6.80;;;;;;;;;;5074742;28;20442;-52
2022/03/13 06:27:57;;;;;;;11.77;7.17;;;;;;;;;;5074603;28;20958;-52
2022/03/13 06:30:24;;;;;;;8.83;6.53;;;;;;;;;;5074706;28;20206;-52
2022/03/13 06:32:51;;;;;;;8.17;6.77;;;;;;;;;;5074373;28;20526;-52
2022/03/13 06:35:17;;;;;;;10.73;6.60;;;;;;;;;;5074634;28;20479;-52
2022/03/13 06:37:44;;;;;;;7.73;6.60;;;;;;;;;;5074511;28;20533;-51
2022/03/13 06:40:14;;;;;;;8.50;6.53;;;;;;;;;;5074562;28;20457;-52
2022/03/13 06:42:40;;;;;;;10.67;7.03;;;;;;;;;;5074386;28;20438;-52
2022/03/13 06:45:09;;;;;;;9.30;6.23;;;;;;;;;;5074348;28;20662;-51
2022/03/13 06:47:35;;;;;;;9.47;6.60;;;;;;;;;;5074243;28;20521;-52
2022/03/13 06:50:01;;;;;;;10.83;6.90;;;;;;;;;;5074319;28;20980;-52
2022/03/13 06:52:26;;;;;;;7.47;6.10;;;;;;;;;;5074012;28;20235;-52
2022/03/13 06:54:53;;;;;;;8.40;6.47;;;;;;;;;;5073977;28;20461;-52
2022/03/13 06:57:20;;;;;;;7.60;6.73;;;;;;;;;;5074163;28;20221;-52
2022/03/13 06:59:46;;;;;;;13.53;7.27;;;;;;;;;;5073940;28;20532;-52
2022/03/13 07:02:13;;;;;;;8.83;6.13;;;;;;;;;;5073927;28;20452;-52
2022/03/13 07:04:39;;;;;;;9.40;6.20;;;;;;;;;;5073463;28;20944;-52
2022/03/13 07:07:05;;;;;;;9.47;7.00;;;;;;;;;;5073798;28;20442;-52
2022/03/13 07:09:31;;;;;;;8.93;6.20;;;;;;;;;;5073894;28;20838;-52
2022/03/13 07:11:57;;;;;;;9.07;6.90;;;;;;;;;;5073722;28;20460;-52
2022/03/13 07:14:24;;;;;;;10.67;6.73;;;;;;;;;;5073677;28;20445;-52
2022/03/13 07:16:51;;;;;;;7.40;6.33;;;;;;;;;;5073514;28;20449;-52
2022/03/13 07:19:17;;;;;;;11.00;7.03;;;;;;;;;;5073648;28;20950;-52
2022/03/13 07:21:43;;;;;;;13.13;6.57;;;;;;;;;;5073497;28;20428;-51
2022/03/13 07:24:10;;;;;;;10.23;6.60;;;;;;;;;;5073461;28;20476;-51
2022/03/13 07:26:36;;;;;;;8.13;6.33;;;;;;;;;;5073460;28;20461;-51
2022/03/13 07:29:02;;;;;;;6.77;6.00;;;;;;;;;;5073396;28;20471;-51
2022/03/13 07:31:30;;;;;;;8.03;6.00;;;;;;;;;;5073644;28;20438;-51
2022/03/13 07:33:56;;;;;;;7.07;6.33;;;;;;;;;;5073306;28;20478;-51
2022/03/13 07:36:22;;;;;;;7.53;6.03;;;;;;;;;;5073196;28;20471;-51
2022/03/13 07:38:48;;;;;;;9.90;6.70;;;;;;;;;;5073358;28;20524;-51
2022/03/13 07:41:14;;;;;;;8.50;6.87;;;;;;;;;;5073274;28;20544;-52
2022/03/13 07:43:40;;;;;;;9.00;6.87;;;;;;;;;;5073128;28;20203;-52
2022/03/13 07:46:06;;;;;;;10.20;7.20;;;;;;;;;;5073037;28;20434;-51
2022/03/13 07:48:35;;;;;;;10.77;7.40;;;;;;;;;;5073026;28;20954;-51
2022/03/13 07:51:01;;;;;;;12.67;7.53;;;;;;;;;;5073021;28;20457;-52
2022/03/13 07:53:28;;;;;;;10.53;6.90;;;;;;;;;;5072811;28;20836;-52
2022/03/13 07:55:54;;;;;;;14.03;6.93;;;;;;;;;;5071553;28;20487;-52
2022/03/13 07:58:20;;;;;;;11.77;6.80;;;;;;;;;;5072766;28;20847;-53
2022/03/13 08:00:46;;;;;;;13.23;6.80;;;;;;;;;;5072848;28;20461;-53
2022/03/13 08:03:17;;;;;;;9.33;6.67;;;;;;;;;;5072789;28;20458;-51
2022/03/13 08:05:44;;;;;;;8.33;6.37;;;;;;;;;;5071933;28;20505;-52
2022/03/13 08:08:10;;;;;;;7.63;6.50;;;;;;;;;;5072578;28;20947;-54
2022/03/13 08:10:36;;;;;;;7.63;6.40;;;;;;;;;;5072515;28;20530;-50
2022/03/13 08:13:02;;;;;;;8.97;6.47;;;;;;;;;;5072514;28;20710;-50
2022/03/13 08:15:28;;;;;;;6.93;6.23;;;;;;;;;;5072534;28;20434;-52
2022/03/13 08:17:54;;;;;;;8.23;6.60;;;;;;;;;;5072393;28;20473;-52
2022/03/13 08:20:20;;;;;;;8.20;6.50;;;;;;;;;;5072320;28;20780;-51
2022/03/13 08:22:48;;;;;;;7.67;6.20;;;;;;;;;;5070795;28;20238;-51
2022/03/13 08:25:18;;;;;;;7.13;5.57;;;;;;;;;;5072499;28;20445;-51
2022/03/13 08:27:44;;;;;;;9.63;7.40;;;;;;;;;;5072342;28;20441;-51
2022/03/13 08:30:11;;;;;;;7.63;6.30;;;;;;;;;;5072414;28;20200;-52
2022/03/13 08:32:38;;;;;;;8.20;6.17;;;;;;;;;;5072210;28;20253;-50
2022/03/13 08:35:06;;;;;;;9.73;6.10;;;;;;;;;;5072131;28;20196;-51
2022/03/13 08:37:32;;;;;;;8.67;6.57;;;;;;;;;;5072290;28;20199;-50
2022/03/13 08:39:59;;;;;;;7.13;5.90;;;;;;;;;;5072164;28;20282;-51
2022/03/13 08:42:25;;;;;;;10.77;6.60;;;;;;;;;;5072059;28;20195;-50
2022/03/13 08:44:51;;;;;;;10.07;6.20;;;;;;;;;;5071848;28;20215;-50
2022/03/13 08:47:17;;;;;;;9.07;6.43;;;;;;;;;;5070023;28;20630;-50
2022/03/13 08:49:43;;;;;;;6.40;5.63;;;;;;;;;;5070419;28;20199;-50
2022/03/13 08:52:09;;;;;;;7.80;6.07;;;;;;;;;;5071219;28;20612;-51
2022/03/13 08:54:35;;;;;;;9.10;6.20;;;;;;;;;;5071698;28;20195;-49
2022/03/13 08:57:04;;;;;;;7.87;6.33;;;;;;;;;;5071738;28;20249;-50
2022/03/13 08:59:34;;;;;;;6.83;6.13;;;;;;;;;;5071927;28;20207;-49
2022/03/13 09:02:00;;;;;;;8.43;6.20;;;;;;;;;;5071645;28;20199;-50
2022/03/13 09:04:26;;;;;;;6.97;5.80;;;;;;;;;;5071722;28;20202;-49
2022/03/13 09:06:54;;;;;;;8.03;6.17;;;;;;;;;;5071404;28;20685;-50
2022/03/13 09:09:20;;;;;;;7.73;5.80;;;;;;;;;;5071606;28;20202;-52
2022/03/13 09:11:47;;;;;;;7.97;5.87;;;;;;;;;;5071581;28;20273;-49
2022/03/13 09:14:14;;;;;;;10.80;6.17;;;;;;;;;;5071472;28;20227;-49
2022/03/13 09:16:42;;;;;;;7.13;5.77;;;;;;;;;;5071444;28;20253;-49
2022/03/13 09:19:08;;;;;;;8.63;6.10;;;;;;;;;;5073716;28;20210;-52
2022/03/13 09:21:38;;;;;;;9.00;5.80;;;;;;;;;;5075425;28;20203;-50
2022/03/13 09:24:04;;;;;;;9.07;6.83;;;;;;;;;;5075173;28;20322;-50
2022/03/13 09:26:30;;;;;;;7.23;5.27;;;;;;;;;;5075663;28;20203;-50
2022/03/13 09:28:56;;;;;;;7.13;6.10;;;;;;;;;;5075445;28;20274;-50
2022/03/13 09:31:24;;;;;;;10.93;6.80;;;;;;;;;;5075473;28;20740;-50
2022/03/13 09:33:50;;;;;;;7.40;6.60;;;;;;;;;;5075146;28;20230;-50
2022/03/13 09:36:16;;;;;;;8.53;6.27;;;;;;;;;;5075433;28;20566;-50
2022/03/13 09:38:42;;;;;;;9.60;6.70;;;;;;;;;;5075300;28;20195;-50
2022/03/13 09:41:08;;;;;;;8.30;6.07;;;;;;;;;;5075388;28;20195;-50
2022/03/13 09:43:34;;;;;;;8.47;6.10;;;;;;;;;;5075238;28;20206;-51
2022/03/13 09:46:00;;;;;;;8.93;6.57;;;;;;;;;;5075427;28;20261;-51
2022/03/13 09:48:28;;;;;;;7.53;5.97;;;;;;;;;;5075168;28;20294;-51
2022/03/13 09:50:54;;;;;;;7.63;6.70;;;;;;;;;;5074902;28;20257;-51
2022/03/13 09:53:20;;;;;;;7.57;6.30;;;;;;;;;;5074901;28;20281;-51
2022/03/13 09:55:46;;;;;;;6.77;5.67;;;;;;;;;;5075054;28;20195;-52
2022/03/13 09:58:12;;;;;;;12.07;6.17;;;;;;;;;;5075300;28;20219;-51
2022/03/13 10:00:39;;;;;;;6.20;5.60;;;;;;;;;;5074689;28;20192;-51
2022/03/13 10:03:11;;;;;;;7.90;5.87;;;;;;;;;;5074756;28;20274;-51
2022/03/13 10:05:42;;;;;;;6.80;5.97;;;;;;;;;;5074825;28;20199;-52
2022/03/13 10:08:08;;;;;;;8.27;6.07;;;;;;;;;;5074705;28;20200;-51
2022/03/13 10:10:42;;;;;;;13.10;6.70;;;;;;;;;;5074760;28;20286;-51
2022/03/13 10:13:09;;;;;;;6.93;5.60;;;;;;;;;;5074318;28;20322;-51
2022/03/13 10:15:40;;;;;;;6.80;5.87;;;;;;;;;;5074654;28;20192;-51
2022/03/13 10:18:10;;;;;;;7.27;5.83;;;;;;;;;;5074694;28;20200;-50
2022/03/13 10:20:39;;;;;;;7.20;6.00;;;;;;;;;;5074576;28;20215;-50
2022/03/13 10:23:16;;;;;;;6.70;6.10;;;;;;;;;;5074050;28;20306;-52
2022/03/13 10:25:42;;;;;;;7.60;6.37;;;;;;;;;;5074845;28;20291;-49
2022/03/13 10:28:12;;;;;;;6.60;5.87;;;;;;;;;;5074652;28;20199;-50
2022/03/13 10:30:38;;;;;;;10.10;6.60;;;;;;;;;;5074217;28;20227;-50
2022/03/13 10:33:06;;;;;;;6.10;5.50;;;;;;;;;;5073214;28;20249;-53
2022/03/13 10:35:32;;;;;;;7.03;5.60;;;;;;;;;;5074253;28;20210;-51
2022/03/13 10:37:58;;;;;;;8.67;6.27;;;;;;;;;;5074601;28;20792;-52
2022/03/13 10:40:32;;;;;;;7.87;5.67;;;;;;;;;;5074628;28;20199;-51
2022/03/13 10:43:07;;;;;;;6.97;5.47;;;;;;;;;;5074536;28;20200;-52
2022/03/13 10:45:35;;;;;;;5.90;5.30;;;;;;;;;;5074484;28;20207;-51
2022/03/13 10:48:16;;;;;;;7.60;5.50;;;;;;;;;;5074219;28;20241;-51
2022/03/13 10:50:46;;;;;;;6.43;4.83;;;;;;;;;;5074403;28;20195;-51
2022/03/13 10:53:12;;;;;;;7.77;6.37;;;;;;;;;;5074253;28;20219;-52
2022/03/13 10:55:41;;;;;;;5.83;5.13;;;;;;;;;;5074311;28;20538;-52
2022/03/13 10:58:07;;;;;;;8.20;6.00;;;;;;;;;;5074024;28;20223;-51
2022/03/13 11:00:36;;;;;;;5.70;5.10;;;;;;;;;;5074303;28;20212;-51
2022/03/13 11:03:10;;;;;;;6.67;5.40;;;;;;;;;;5074016;28;20200;-50
2022/03/13 11:05:37;;;;;;;8.40;5.63;;;;;;;;;;5074063;28;20199;-53
2022/03/13 11:08:04;;;;;;;7.93;5.33;;;;;;;;;;5073632;28;20207;-51
2022/03/13 11:10:30;;;;;;;6.00;5.33;;;;;;;;;;5074040;28;20197;-51
2022/03/13 11:12:57;;;;;;;6.07;4.80;;;;;;;;;;5073738;28;20722;-51
2022/03/13 11:15:30;;;;;;;6.53;5.20;;;;;;;;;;5073856;28;20199;-51
2022/03/13 11:17:57;;;;;;;5.93;5.13;;;;;;;;;;5073769;28;20269;-52
2022/03/13 11:20:23;;;;;;;8.03;5.20;;;;;;;;;;5073659;28;20302;-51
2022/03/13 11:22:49;;;;;;;7.97;5.60;;;;;;;;;;5073395;28;20204;-50
2022/03/13 11:25:16;;;;;;;7.60;5.50;;;;;;;;;;5073374;28;20666;-52
2022/03/13 11:27:43;;;;;;;5.63;4.37;;;;;;;;;;5073379;28;20225;-52
2022/03/13 11:30:14;;;;;;;9.27;6.07;;;;;;;;;;5073479;28;20565;-52
2022/03/13 11:32:46;;;;;;;8.23;4.83;;;;;;;;;;5073248;28;20250;-51
2022/03/13 11:35:30;;;;;;;6.00;5.13;;;;;;;;;;5067346;28;20200;-51
2022/03/13 11:38:11;;;;;;;8.10;5.30;;;;;;;;;;5053170;28;20215;-51
2022/03/13 11:40:37;;;;;;;11.20;5.50;;;;;;;;;;5052290;28;20196;-52
2022/03/13 11:43:08;;;;;;;8.80;5.63;;;;;;;;;;5052916;28;20200;-52
2022/03/13 11:45:36;;;;;;;6.40;5.67;;;;;;;;;;5053044;28;20196;-52
2022/03/13 11:48:21;;;;;;;7.30;5.37;;;;;;;;;;5053054;28;20231;-52
2022/03/13 11:50:48;;;;;;;7.07;5.47;;;;;;;;;;5052933;28;20192;-52
2022/03/13 11:53:15;;;;;;;6.37;5.73;;;;;;;;;;5053034;28;20704;-52
2022/03/13 11:55:56;;;;;;;6.00;5.20;;;;;;;;;;5053109;28;20200;-52
2022/03/13 11:58:40;;;;;;;8.50;5.07;;;;;;;;;;5052898;28;20204;-51
2022/03/13 12:01:08;;;;;;;9.67;5.97;;;;;;;;;;5052776;28;20287;-53
2022/03/13 12:03:34;;;;;;;7.20;5.53;;;;;;;;;;5052787;28;20697;-52
2022/03/13 12:06:00;;;;;;;7.20;5.60;;;;;;;;;;5052675;28;20206;-52
2022/03/13 12:08:48;;;;;;;8.07;5.70;;;;;;;;;;5052741;28;20196;-52
2022/03/13 12:11:37;;;;;;;9.43;6.00;;;;;;;;;;5052678;28;20200;-52
2022/03/13 12:14:07;;;;;;;7.07;5.37;;;;;;;;;;5046943;28;20243;-53
2022/03/13 12:16:33;;;;;;;6.27;5.50;;;;;;;;;;5052239;28;20717;-50
2022/03/13 12:18:59;;;;;;;6.80;5.60;;;;;;;;;;5052505;28;20701;-50
2022/03/13 12:21:25;;;;;;;6.87;5.50;;;;;;;;;;5052295;28;20693;-51
2022/03/13 12:23:52;;;;;;;8.53;5.33;;;;;;;;;;5052324;28;20236;-51
2022/03/13 12:26:18;;;;;;;7.90;5.90;;;;;;;;;;5052510;28;20238;-51
2022/03/13 12:28:45;;;;;;;6.77;5.60;;;;;;;;;;5052396;28;20216;-53
2022/03/13 12:31:14;;;;;;;8.27;6.30;;;;;;;;;;5052232;28;20230;-51
2022/03/13 12:33:44;;;;;;;6.57;5.97;;;;;;;;;;5050865;28;20227;-51
2022/03/13 12:36:10;;;;;;;6.03;5.43;;;;;;;;;;5052019;28;20720;-52
2022/03/13 12:38:38;;;;;;;7.80;5.20;;;;;;;;;;5052052;28;20571;-51
2022/03/13 12:41:09;;;;;;;6.57;5.93;;;;;;;;;;5051883;28;20224;-50
2022/03/13 12:43:52;;;;;;;10.17;6.00;;;;;;;;;;5052146;28;20262;-50
2022/03/13 12:46:21;;;;;;;6.33;5.73;;;;;;;;;;5051853;28;20203;-51
2022/03/13 12:48:53;;;;;;;6.37;5.30;;;;;;;;;;5051939;28;20204;-50
2022/03/13 12:51:46;;;;;;;6.33;5.20;;;;;;;;;;5051966;28;20257;-52
2022/03/13 12:54:13;;;;;;;5.90;5.30;;;;;;;;;;5027549;28;20323;-50
2022/03/13 12:56:43;;;;;;;7.20;5.60;;;;;;;;;;5051962;28;20278;-52
2022/03/13 12:59:21;;;;;;;6.03;5.43;;;;;;;;;;5052005;28;20200;-51
2022/03/13 13:02:00;;;;;;;5.97;5.20;;;;;;;;;;5051882;28;20196;-51
2022/03/13 13:04:26;;;;;;;6.13;5.53;;;;;;;;;;5051785;28;20239;-54
2022/03/13 13:06:52;;;;;;;10.30;5.57;;;;;;;;;;5051636;28;20651;-53
2022/03/13 13:09:25;;;;;;;7.07;5.83;;;;;;;;;;5050354;28;20198;-53
2022/03/13 13:11:52;;;;;;;5.77;5.00;;;;;;;;;;5051741;28;20228;-52
2022/03/13 13:14:22;;;;;;;5.73;5.17;;;;;;;;;;5051685;28;20690;-52
2022/03/13 13:16:50;;;;;;;6.27;5.67;;;;;;;;;;5051777;28;20212;-53
2022/03/13 13:19:16;;;;;;;6.03;5.07;;;;;;;;;;5051734;28;20288;-55
2022/03/13 13:21:42;;;;;;;5.73;5.13;;;;;;;;;;5051622;28;20271;-51
2022/03/13 13:24:22;;;;;;;8.50;5.63;;;;;;;;;;5051254;28;20722;-52
2022/03/13 13:26:48;;;;;;;7.37;5.20;;;;;;;;;;5051374;28;20231;-51
2022/03/13 13:29:14;;;;;;;7.30;5.20;;;;;;;;;;5051670;28;20208;-50
2022/03/13 13:31:40;;;;;;;5.23;4.73;;;;;;;;;;5051654;28;20612;-50
2022/03/13 13:34:17;;;;;;;6.70;5.17;;;;;;;;;;5050761;28;20231;-51
2022/03/13 13:36:43;;;;;;;8.30;5.17;;;;;;;;;;5051445;28;20618;-51
2022/03/13 13:39:09;;;;;;;6.00;4.90;;;;;;;;;;5051651;28;20197;-50
2022/03/13 13:41:36;;;;;;;6.83;5.73;;;;;;;;;;5051552;28;20192;-51
2022/03/13 13:44:03;;;;;;;6.27;4.90;;;;;;;;;;5051259;28;20306;-51
2022/03/13 13:46:30;;;;;;;5.90;5.30;;;;;;;;;;5051603;28;20200;-51
2022/03/13 13:48:56;;;;;;;6.53;5.23;;;;;;;;;;5051419;28;20200;-50
2022/03/13 13:51:24;;;;;;;5.23;4.73;;;;;;;;;;5051275;28;20200;-51
2022/03/13 13:53:54;;;;;;;7.60;5.50;;;;;;;;;;5051036;28;20216;-51
2022/03/13 13:56:28;;;;;;;6.47;5.50;;;;;;;;;;5051262;28;20207;-51
2022/03/13 13:58:54;;;;;;;6.20;5.00;;;;;;;;;;5051188;28;20279;-51
2022/03/13 14:01:24;;;;;;;7.10;5.40;;;;;;;;;;5051397;28;20201;-51
2022/03/13 14:03:50;;;;;;;6.83;5.33;;;;;;;;;;5051409;28;20188;-51
2022/03/13 14:06:18;;;;;;;6.20;5.60;;;;;;;;;;5054841;28;20647;-50
2022/03/13 14:08:46;;;;;;;7.37;5.57;;;;;;;;;;5054926;28;20204;-51
2022/03/13 14:11:13;;;;;;;11.17;5.87;;;;;;;;;;5055066;28;20210;-51
2022/03/13 14:13:39;;;;;;;6.27;5.60;;;;;;;;;;5054868;28;20417;-51
2022/03/13 14:16:05;;;;;;;5.73;4.93;;;;;;;;;;5054870;28;20712;-50
2022/03/13 14:18:31;;;;;;;7.27;5.40;;;;;;;;;;5054684;28;20570;-51
2022/03/13 14:20:57;;;;;;;6.50;5.43;;;;;;;;;;5054623;28;20279;-51
2022/03/13 14:23:23;;;;;;;7.50;5.80;;;;;;;;;;5054347;28;20415;-51
2022/03/13 14:25:50;;;;;;;7.17;5.30;;;;;;;;;;5054482;28;20226;-51
2022/03/13 14:28:20;;;;;;;6.23;5.60;;;;;;;;;;5054515;28;20207;-51
2022/03/13 14:30:46;;;;;;;6.70;5.87;;;;;;;;;;5054387;28;20196;-52
2022/03/13 14:33:12;;;;;;;6.03;5.43;;;;;;;;;;5054264;28;20771;-52
2022/03/13 14:35:38;;;;;;;6.90;5.93;;;;;;;;;;5054011;28;20227;-51
2022/03/13 14:38:04;;;;;;;6.23;5.63;;;;;;;;;;5054073;28;20575;-51
2022/03/13 14:40:30;;;;;;;6.43;5.17;;;;;;;;;;5054504;28;20218;-52
2022/03/13 14:42:57;;;;;;;6.93;5.50;;;;;;;;;;5054222;28;20253;-52